Terminal Aerodrome Forecast
Issued by NWS

Home | Current Version | Previous Version | Text Only | Print | Product List | Glossary On
Versions: 1 2 3 4 5 6 7 8 9 10 11 12 13
000
FTUS42 TJSJ 251100
TAFNCM
TAF
TNCM 251121Z 2512/2612 10006KT P6SM FEW020 BKN070
     FM251300 12012KT P6SM FEW020
     FM252300 10008KT P6SM FEW020=

USA.gov is the U.S. government's official web portal to all federal, state and local government web resources and services.